Impacts TAF Board
For situational awareness. Not to be used for flight planning purposes.
IDs:

KOLS - Nogales Intl, AZ, US

Issued at 1727 UTC 01 Feb 2023
Updated at 2303 UTC 01 Feb 2023
Potential Impact None Slight Moderate High
Time2254Z 02/00Z 02/01Z 02/02Z 02/03Z 02/04Z 02/05Z 02/06Z 02/07Z 02/08Z 02/09Z 02/10Z 02/11Z 02/12Z>>
Type OBS PRVL PRVL PRVL PRVL PRVL PRVL PRVL PRVL PRVL PRVL PRVL PRVL PRVL
VIS 10 >6 >6 >6 >6 >6 >6 >6 >6 >6 >6 >6 >6 >6
CIG 65 -- -- -- -- -- -- -- -- -- -- -- -- --
Cover OVC SCT SCT SCT SCT SCT SCT SKC SKC SKC SKC SKC SKC SKC
FltCat VFR VFR VFR VFR VFR VFR VFR VFR VFR VFR VFR VFR VFR VFR
WX -- -- -- -- -- -- -- -- -- -- -- -- -- --
WDir 270 300 300 300 300 300 300 VRB VRB VRB VRB VRB VRB VRB
WSpd 7 7 7 7 7 7 7 3 3 3 3 3 3 3
WGst -- -- -- -- -- -- -- -- -- -- -- -- -- --
WSHgt -- -- -- -- -- -- -- -- -- -- -- -- -- --
WSDir -- -- -- -- -- -- -- -- -- -- -- -- -- --
WSSpd -- -- -- -- -- -- -- -- -- -- -- -- -- --
R03/21
XWnd 5 7 7 7 7 7 7 VRB VRB VRB VRB VRB VRB VRB
HWnd -5 -2 -2 -2 -2 -2 -2 VRB VRB VRB VRB VRB VRB VRB

NOTE: LAMP data beyond the time of the TAF data is denoted as LAMP in Type and colored magenta.

Raw TAF
KOLS 011727Z 0118/0218 27007KT P6SM SCT050 BKN080
  FM012300 30007KT P6SM SCT050 SCT080
  FM020600 VRB03KT P6SM SKC AMD NOT SKED


Raw METAR
KOLS 012254Z AUTO 27007KT 10SM OVC065 13/M03 A3001 RMK AO2 SLP144 T01331028
KOLS 012154Z AUTO 01007KT 10SM BKN070 OVC090 13/M02 A3000 RMK AO2 SLP139 T01331017 $
KOLS 012054Z AUTO A3000 RMK AO2 SLPNO 56018 PWINO $

METAR Board
Radar Display
Forecast Discussion

For situational awareness. Not to be used for flight planning purposes.